sensor_id;sensor_type;location;lat;lon;timestamp;P1;durP1;ratioP1;P2;durP2;ratioP2
59338;SDS011;45117;50.960;5.500;2022-09-30T00:00:21;18.75;;;12.02;;
59338;SDS011;45117;50.960;5.500;2022-09-30T00:02:47;23.52;;;12.05;;
59338;SDS011;45117;50.960;5.500;2022-09-30T00:05:14;17.98;;;11.50;;
59338;SDS011;45117;50.960;5.500;2022-09-30T00:07:41;16.67;;;11.57;;
59338;SDS011;45117;50.960;5.500;2022-09-30T00:10:08;22.17;;;14.32;;
59338;SDS011;45117;50.960;5.500;2022-09-30T00:12:35;19.05;;;12.85;;
59338;SDS011;45117;50.960;5.500;2022-09-30T00:15:03;19.17;;;12.27;;
59338;SDS011;45117;50.960;5.500;2022-09-30T00:17:31;19.35;;;12.82;;
59338;SDS011;45117;50.960;5.500;2022-09-30T00:19:57;20.40;;;13.50;;
59338;SDS011;45117;50.960;5.500;2022-09-30T00:22:24;23.45;;;13.60;;
59338;SDS011;45117;50.960;5.500;2022-09-30T00:24:51;21.38;;;14.10;;
59338;SDS011;45117;50.960;5.500;2022-09-30T00:27:17;15.85;;;10.80;;
59338;SDS011;45117;50.960;5.500;2022-09-30T00:29:44;21.70;;;12.30;;
59338;SDS011;45117;50.960;5.500;2022-09-30T00:32:12;17.83;;;11.40;;
59338;SDS011;45117;50.960;5.500;2022-09-30T00:34:39;21.40;;;13.20;;
59338;SDS011;45117;50.960;5.500;2022-09-30T00:37:05;17.17;;;11.10;;
59338;SDS011;45117;50.960;5.500;2022-09-30T00:39:32;21.35;;;13.45;;
59338;SDS011;45117;50.960;5.500;2022-09-30T00:42:01;20.55;;;13.77;;
59338;SDS011;45117;50.960;5.500;2022-09-30T00:44:43;21.88;;;13.35;;
59338;SDS011;45117;50.960;5.500;2022-09-30T00:53:02;22.23;;;12.10;;
59338;SDS011;45117;50.960;5.500;2022-09-30T00:55:35;18.42;;;11.88;;
59338;SDS011;45117;50.960;5.500;2022-09-30T00:58:08;22.60;;;13.40;;
59338;SDS011;45117;50.960;5.500;2022-09-30T01:00:39;18.95;;;12.02;;
59338;SDS011;45117;50.960;5.500;2022-09-30T01:03:08;20.20;;;12.10;;
59338;SDS011;45117;50.960;5.500;2022-09-30T01:05:35;18.17;;;11.30;;
59338;SDS011;45117;50.960;5.500;2022-09-30T01:08:02;20.83;;;11.40;;
59338;SDS011;45117;50.960;5.500;2022-09-30T01:10:31;20.08;;;12.13;;
59338;SDS011;45117;50.960;5.500;2022-09-30T01:12:58;17.23;;;11.93;;
59338;SDS011;45117;50.960;5.500;2022-09-30T01:15:28;19.63;;;12.63;;
59338;SDS011;45117;50.960;5.500;2022-09-30T01:18:02;20.60;;;11.63;;
59338;SDS011;45117;50.960;5.500;2022-09-30T01:23:59;19.38;;;11.98;;
59338;SDS011;45117;50.960;5.500;2022-09-30T01:29:59;22.42;;;12.88;;
59338;SDS011;45117;50.960;5.500;2022-09-30T01:32:40;19.27;;;11.73;;
59338;SDS011;45117;50.960;5.500;2022-09-30T01:35:22;20.42;;;12.55;;
59338;SDS011;45117;50.960;5.500;2022-09-30T01:37:58;21.27;;;12.13;;
59338;SDS011;45117;50.960;5.500;2022-09-30T01:40:37;19.55;;;11.40;;
59338;SDS011;45117;50.960;5.500;2022-09-30T01:43:10;19.23;;;12.07;;
59338;SDS011;45117;50.960;5.500;2022-09-30T01:45:41;19.25;;;12.20;;
59338;SDS011;45117;50.960;5.500;2022-09-30T01:48:15;21.42;;;12.63;;
59338;SDS011;45117;50.960;5.500;2022-09-30T01:50:46;17.98;;;12.25;;
59338;SDS011;45117;50.960;5.500;2022-09-30T01:53:19;22.95;;;12.55;;
59338;SDS011;45117;50.960;5.500;2022-09-30T01:55:53;20.88;;;12.70;;
59338;SDS011;45117;50.960;5.500;2022-09-30T01:58:27;23.23;;;13.93;;
59338;SDS011;45117;50.960;5.500;2022-09-30T02:00:59;20.88;;;13.50;;
59338;SDS011;45117;50.960;5.500;2022-09-30T02:03:32;19.77;;;12.27;;
59338;SDS011;45117;50.960;5.500;2022-09-30T02:06:03;19.92;;;12.85;;
59338;SDS011;45117;50.960;5.500;2022-09-30T02:08:34;21.38;;;12.85;;
59338;SDS011;45117;50.960;5.500;2022-09-30T02:11:07;22.45;;;13.77;;
59338;SDS011;45117;50.960;5.500;2022-09-30T02:13:39;24.85;;;14.60;;
59338;SDS011;45117;50.960;5.500;2022-09-30T02:16:11;22.88;;;13.77;;
59338;SDS011;45117;50.960;5.500;2022-09-30T02:18:44;20.90;;;13.38;;
59338;SDS011;45117;50.960;5.500;2022-09-30T02:21:16;22.25;;;14.15;;
59338;SDS011;45117;50.960;5.500;2022-09-30T02:23:46;20.58;;;13.52;;
59338;SDS011;45117;50.960;5.500;2022-09-30T02:26:15;27.15;;;15.15;;
59338;SDS011;45117;50.960;5.500;2022-09-30T02:28:48;27.20;;;16.25;;
59338;SDS011;45117;50.960;5.500;2022-09-30T02:31:18;29.63;;;17.05;;
59338;SDS011;45117;50.960;5.500;2022-09-30T02:33:51;25.15;;;15.45;;
59338;SDS011;45117;50.960;5.500;2022-09-30T02:36:22;26.25;;;15.48;;
59338;SDS011;45117;50.960;5.500;2022-09-30T02:38:55;24.13;;;13.93;;
59338;SDS011;45117;50.960;5.500;2022-09-30T02:41:26;24.45;;;15.32;;
59338;SDS011;45117;50.960;5.500;2022-09-30T02:43:55;24.52;;;15.45;;
59338;SDS011;45117;50.960;5.500;2022-09-30T02:46:24;28.65;;;16.83;;
59338;SDS011;45117;50.960;5.500;2022-09-30T02:49:01;30.90;;;16.95;;
59338;SDS011;45117;50.960;5.500;2022-09-30T02:51:34;26.90;;;15.85;;
59338;SDS011;45117;50.960;5.500;2022-09-30T02:54:07;29.38;;;17.75;;
59338;SDS011;45117;50.960;5.500;2022-09-30T02:56:45;27.27;;;17.15;;
59338;SDS011;45117;50.960;5.500;2022-09-30T02:59:18;29.80;;;17.13;;
59338;SDS011;45117;50.960;5.500;2022-09-30T03:01:46;27.85;;;17.27;;
59338;SDS011;45117;50.960;5.500;2022-09-30T03:04:15;30.13;;;17.20;;
59338;SDS011;45117;50.960;5.500;2022-09-30T03:06:46;27.08;;;15.35;;
59338;SDS011;45117;50.960;5.500;2022-09-30T03:09:13;35.83;;;20.17;;
59338;SDS011;45117;50.960;5.500;2022-09-30T03:11:40;30.75;;;18.15;;
59338;SDS011;45117;50.960;5.500;2022-09-30T03:14:17;31.17;;;18.02;;
59338;SDS011;45117;50.960;5.500;2022-09-30T03:20:11;30.20;;;17.15;;
59338;SDS011;45117;50.960;5.500;2022-09-30T03:25:40;30.85;;;17.10;;
59338;SDS011;45117;50.960;5.500;2022-09-30T03:28:17;31.60;;;16.92;;
59338;SDS011;45117;50.960;5.500;2022-09-30T03:30:50;30.05;;;17.85;;
59338;SDS011;45117;50.960;5.500;2022-09-30T03:33:29;31.48;;;17.75;;
59338;SDS011;45117;50.960;5.500;2022-09-30T03:36:04;32.50;;;19.35;;
59338;SDS011;45117;50.960;5.500;2022-09-30T03:38:36;31.60;;;17.88;;
59338;SDS011;45117;50.960;5.500;2022-09-30T03:41:14;33.88;;;19.48;;
59338;SDS011;45117;50.960;5.500;2022-09-30T03:43:46;32.00;;;18.33;;
59338;SDS011;45117;50.960;5.500;2022-09-30T03:46:18;31.23;;;18.02;;
59338;SDS011;45117;50.960;5.500;2022-09-30T03:48:49;28.30;;;17.35;;
59338;SDS011;45117;50.960;5.500;2022-09-30T03:51:20;33.95;;;20.27;;
59338;SDS011;45117;50.960;5.500;2022-09-30T03:53:49;36.63;;;20.27;;
59338;SDS011;45117;50.960;5.500;2022-09-30T03:56:23;34.67;;;20.13;;
59338;SDS011;45117;50.960;5.500;2022-09-30T03:58:50;34.47;;;20.65;;
59338;SDS011;45117;50.960;5.500;2022-09-30T04:01:17;43.47;;;22.02;;
59338;SDS011;45117;50.960;5.500;2022-09-30T04:03:45;34.80;;;19.00;;
59338;SDS011;45117;50.960;5.500;2022-09-30T04:06:12;35.85;;;19.52;;
59338;SDS011;45117;50.960;5.500;2022-09-30T04:08:40;31.02;;;18.40;;
59338;SDS011;45117;50.960;5.500;2022-09-30T04:11:07;32.50;;;19.75;;
59338;SDS011;45117;50.960;5.500;2022-09-30T04:13:34;34.58;;;19.23;;
59338;SDS011;45117;50.960;5.500;2022-09-30T04:16:01;35.05;;;19.92;;
59338;SDS011;45117;50.960;5.500;2022-09-30T04:18:27;39.42;;;20.67;;
59338;SDS011;45117;50.960;5.500;2022-09-30T04:20:55;36.50;;;20.10;;
59338;SDS011;45117;50.960;5.500;2022-09-30T04:23:22;32.22;;;20.35;;
59338;SDS011;45117;50.960;5.500;2022-09-30T04:25:52;33.35;;;19.75;;
59338;SDS011;45117;50.960;5.500;2022-09-30T04:28:19;37.47;;;19.83;;
59338;SDS011;45117;50.960;5.500;2022-09-30T04:30:46;43.63;;;22.38;;
59338;SDS011;45117;50.960;5.500;2022-09-30T04:33:12;38.70;;;22.77;;
59338;SDS011;45117;50.960;5.500;2022-09-30T04:35:39;40.28;;;21.85;;
59338;SDS011;45117;50.960;5.500;2022-09-30T04:38:05;44.25;;;22.35;;
59338;SDS011;45117;50.960;5.500;2022-09-30T04:40:34;38.83;;;20.85;;
59338;SDS011;45117;50.960;5.500;2022-09-30T04:43:02;44.53;;;23.38;;
59338;SDS011;45117;50.960;5.500;2022-09-30T04:45:29;41.10;;;22.50;;
59338;SDS011;45117;50.960;5.500;2022-09-30T04:47:55;43.55;;;23.08;;
59338;SDS011;45117;50.960;5.500;2022-09-30T04:50:22;39.95;;;21.95;;
59338;SDS011;45117;50.960;5.500;2022-09-30T04:52:48;40.00;;;21.42;;
59338;SDS011;45117;50.960;5.500;2022-09-30T04:55:15;37.83;;;20.88;;
59338;SDS011;45117;50.960;5.500;2022-09-30T04:57:42;39.00;;;20.58;;
59338;SDS011;45117;50.960;5.500;2022-09-30T05:00:11;46.08;;;22.80;;
59338;SDS011;45117;50.960;5.500;2022-09-30T05:02:38;37.70;;;22.67;;
59338;SDS011;45117;50.960;5.500;2022-09-30T05:05:05;44.95;;;22.17;;
59338;SDS011;45117;50.960;5.500;2022-09-30T05:07:32;41.40;;;21.80;;
59338;SDS011;45117;50.960;5.500;2022-09-30T05:09:58;44.38;;;22.48;;
59338;SDS011;45117;50.960;5.500;2022-09-30T05:12:25;42.75;;;22.90;;
59338;SDS011;45117;50.960;5.500;2022-09-30T05:14:52;45.30;;;21.88;;
59338;SDS011;45117;50.960;5.500;2022-09-30T05:17:20;40.60;;;23.27;;
59338;SDS011;45117;50.960;5.500;2022-09-30T05:19:46;46.53;;;23.92;;
59338;SDS011;45117;50.960;5.500;2022-09-30T05:22:13;42.70;;;22.17;;
59338;SDS011;45117;50.960;5.500;2022-09-30T05:24:40;42.13;;;22.60;;
59338;SDS011;45117;50.960;5.500;2022-09-30T05:27:06;44.08;;;22.90;;
59338;SDS011;45117;50.960;5.500;2022-09-30T05:29:33;42.80;;;23.25;;
59338;SDS011;45117;50.960;5.500;2022-09-30T05:32:00;42.03;;;23.65;;
59338;SDS011;45117;50.960;5.500;2022-09-30T05:34:28;49.15;;;24.10;;
59338;SDS011;45117;50.960;5.500;2022-09-30T05:36:55;43.80;;;23.10;;
59338;SDS011;45117;50.960;5.500;2022-09-30T05:39:21;46.30;;;22.95;;
59338;SDS011;45117;50.960;5.500;2022-09-30T05:41:48;45.20;;;22.17;;
59338;SDS011;45117;50.960;5.500;2022-09-30T05:44:14;49.20;;;23.33;;
59338;SDS011;45117;50.960;5.500;2022-09-30T05:46:41;49.90;;;23.67;;
59338;SDS011;45117;50.960;5.500;2022-09-30T05:49:08;40.03;;;21.25;;
59338;SDS011;45117;50.960;5.500;2022-09-30T05:51:36;45.40;;;22.95;;
59338;SDS011;45117;50.960;5.500;2022-09-30T05:54:03;46.38;;;22.77;;
59338;SDS011;45117;50.960;5.500;2022-09-30T05:56:29;47.58;;;23.75;;
59338;SDS011;45117;50.960;5.500;2022-09-30T05:58:56;42.55;;;21.98;;
59338;SDS011;45117;50.960;5.500;2022-09-30T06:01:22;44.42;;;23.52;;
59338;SDS011;45117;50.960;5.500;2022-09-30T06:03:49;45.85;;;22.63;;
59338;SDS011;45117;50.960;5.500;2022-09-30T06:06:15;45.80;;;22.25;;
59338;SDS011;45117;50.960;5.500;2022-09-30T06:08:44;48.88;;;23.40;;
59338;SDS011;45117;50.960;5.500;2022-09-30T06:11:11;39.85;;;21.88;;
59338;SDS011;45117;50.960;5.500;2022-09-30T06:13:39;42.58;;;22.63;;
59338;SDS011;45117;50.960;5.500;2022-09-30T06:16:07;44.17;;;22.80;;
59338;SDS011;45117;50.960;5.500;2022-09-30T06:18:34;42.08;;;23.83;;
59338;SDS011;45117;50.960;5.500;2022-09-30T06:21:03;41.97;;;22.85;;
59338;SDS011;45117;50.960;5.500;2022-09-30T06:23:31;44.67;;;23.33;;
59338;SDS011;45117;50.960;5.500;2022-09-30T06:26:00;44.92;;;23.52;;
59338;SDS011;45117;50.960;5.500;2022-09-30T06:28:28;45.80;;;23.75;;
59338;SDS011;45117;50.960;5.500;2022-09-30T06:30:54;45.35;;;23.80;;
59338;SDS011;45117;50.960;5.500;2022-09-30T06:33:21;44.40;;;23.52;;
59338;SDS011;45117;50.960;5.500;2022-09-30T06:35:47;47.20;;;23.45;;
59338;SDS011;45117;50.960;5.500;2022-09-30T06:38:15;43.28;;;22.98;;
59338;SDS011;45117;50.960;5.500;2022-09-30T06:40:42;44.60;;;23.25;;
59338;SDS011;45117;50.960;5.500;2022-09-30T06:43:11;50.40;;;23.80;;
59338;SDS011;45117;50.960;5.500;2022-09-30T06:45:37;48.95;;;24.55;;
59338;SDS011;45117;50.960;5.500;2022-09-30T06:48:04;44.97;;;23.35;;
59338;SDS011;45117;50.960;5.500;2022-09-30T06:50:32;44.55;;;23.83;;
59338;SDS011;45117;50.960;5.500;2022-09-30T06:52:59;50.08;;;26.35;;
59338;SDS011;45117;50.960;5.500;2022-09-30T06:55:26;51.25;;;26.63;;
59338;SDS011;45117;50.960;5.500;2022-09-30T06:57:53;52.83;;;26.13;;
59338;SDS011;45117;50.960;5.500;2022-09-30T07:00:22;46.65;;;23.60;;
59338;SDS011;45117;50.960;5.500;2022-09-30T07:02:49;43.53;;;22.85;;
59338;SDS011;45117;50.960;5.500;2022-09-30T07:05:16;37.63;;;19.75;;
59338;SDS011;45117;50.960;5.500;2022-09-30T07:07:43;36.83;;;21.08;;
59338;SDS011;45117;50.960;5.500;2022-09-30T07:10:09;27.15;;;16.13;;
59338;SDS011;45117;50.960;5.500;2022-09-30T07:12:36;31.63;;;15.90;;
59338;SDS011;45117;50.960;5.500;2022-09-30T07:15:03;32.20;;;16.77;;
59338;SDS011;45117;50.960;5.500;2022-09-30T07:17:31;31.65;;;17.75;;
59338;SDS011;45117;50.960;5.500;2022-09-30T07:19:58;27.70;;;17.63;;
59338;SDS011;45117;50.960;5.500;2022-09-30T07:22:25;27.92;;;16.85;;
59338;SDS011;45117;50.960;5.500;2022-09-30T07:24:56;29.60;;;15.90;;
59338;SDS011;45117;50.960;5.500;2022-09-30T07:27:24;25.52;;;17.23;;
59338;SDS011;45117;50.960;5.500;2022-09-30T07:29:51;29.80;;;17.15;;
59338;SDS011;45117;50.960;5.500;2022-09-30T07:32:18;23.58;;;15.57;;
59338;SDS011;45117;50.960;5.500;2022-09-30T07:34:47;23.88;;;16.23;;
59338;SDS011;45117;50.960;5.500;2022-09-30T07:37:16;25.60;;;14.48;;
59338;SDS011;45117;50.960;5.500;2022-09-30T07:39:44;26.30;;;16.02;;
59338;SDS011;45117;50.960;5.500;2022-09-30T07:42:12;28.50;;;16.02;;
59338;SDS011;45117;50.960;5.500;2022-09-30T07:44:40;24.13;;;16.15;;
59338;SDS011;45117;50.960;5.500;2022-09-30T07:47:07;21.17;;;13.05;;
59338;SDS011;45117;50.960;5.500;2022-09-30T07:49:34;29.30;;;17.33;;
59338;SDS011;45117;50.960;5.500;2022-09-30T07:52:03;23.27;;;15.68;;
59338;SDS011;45117;50.960;5.500;2022-09-30T07:54:31;26.45;;;16.30;;
59338;SDS011;45117;50.960;5.500;2022-09-30T07:56:59;27.85;;;15.88;;
59338;SDS011;45117;50.960;5.500;2022-09-30T07:59:27;25.67;;;16.23;;
59338;SDS011;45117;50.960;5.500;2022-09-30T08:01:54;26.63;;;16.17;;
59338;SDS011;45117;50.960;5.500;2022-09-30T08:04:21;24.45;;;15.60;;
59338;SDS011;45117;50.960;5.500;2022-09-30T08:06:49;25.88;;;15.15;;
59338;SDS011;45117;50.960;5.500;2022-09-30T08:09:19;28.60;;;16.33;;
59338;SDS011;45117;50.960;5.500;2022-09-30T08:11:47;24.27;;;16.70;;
59338;SDS011;45117;50.960;5.500;2022-09-30T08:14:15;26.23;;;15.82;;
59338;SDS011;45117;50.960;5.500;2022-09-30T08:16:43;28.13;;;16.85;;
59338;SDS011;45117;50.960;5.500;2022-09-30T08:19:12;27.25;;;16.52;;
59338;SDS011;45117;50.960;5.500;2022-09-30T08:21:40;24.55;;;15.07;;
59338;SDS011;45117;50.960;5.500;2022-09-30T08:24:07;27.73;;;16.27;;
59338;SDS011;45117;50.960;5.500;2022-09-30T08:26:35;25.52;;;14.20;;
59338;SDS011;45117;50.960;5.500;2022-09-30T08:29:02;26.50;;;16.23;;
59338;SDS011;45117;50.960;5.500;2022-09-30T08:31:28;25.63;;;15.13;;
59338;SDS011;45117;50.960;5.500;2022-09-30T08:33:57;24.02;;;15.40;;
59338;SDS011;45117;50.960;5.500;2022-09-30T08:36:24;24.70;;;15.00;;
59338;SDS011;45117;50.960;5.500;2022-09-30T08:38:52;26.30;;;16.10;;
59338;SDS011;45117;50.960;5.500;2022-09-30T08:41:27;26.48;;;16.15;;
59338;SDS011;45117;50.960;5.500;2022-09-30T08:44:13;24.20;;;15.35;;
59338;SDS011;45117;50.960;5.500;2022-09-30T08:46:52;23.25;;;15.00;;
59338;SDS011;45117;50.960;5.500;2022-09-30T08:49:27;24.85;;;14.77;;
59338;SDS011;45117;50.960;5.500;2022-09-30T08:52:02;23.17;;;15.18;;
59338;SDS011;45117;50.960;5.500;2022-09-30T08:54:36;24.73;;;15.27;;
59338;SDS011;45117;50.960;5.500;2022-09-30T08:57:09;22.08;;;14.82;;
59338;SDS011;45117;50.960;5.500;2022-09-30T08:59:38;21.67;;;14.75;;
59338;SDS011;45117;50.960;5.500;2022-09-30T09:02:12;20.48;;;14.27;;
59338;SDS011;45117;50.960;5.500;2022-09-30T09:04:43;21.02;;;13.85;;
59338;SDS011;45117;50.960;5.500;2022-09-30T09:07:14;22.60;;;14.50;;
59338;SDS011;45117;50.960;5.500;2022-09-30T09:09:56;20.42;;;13.38;;
59338;SDS011;45117;50.960;5.500;2022-09-30T09:12:36;20.58;;;13.88;;
59338;SDS011;45117;50.960;5.500;2022-09-30T09:15:21;21.17;;;13.32;;
59338;SDS011;45117;50.960;5.500;2022-09-30T09:18:01;21.95;;;12.95;;
59338;SDS011;45117;50.960;5.500;2022-09-30T09:20:39;19.20;;;13.75;;
59338;SDS011;45117;50.960;5.500;2022-09-30T09:23:10;19.48;;;13.10;;
59338;SDS011;45117;50.960;5.500;2022-09-30T09:25:39;15.55;;;11.73;;
59338;SDS011;45117;50.960;5.500;2022-09-30T09:28:10;17.65;;;11.85;;
59338;SDS011;45117;50.960;5.500;2022-09-30T09:30:47;19.67;;;12.23;;
59338;SDS011;45117;50.960;5.500;2022-09-30T09:33:20;18.65;;;12.82;;
59338;SDS011;45117;50.960;5.500;2022-09-30T09:35:50;20.88;;;13.50;;
59338;SDS011;45117;50.960;5.500;2022-09-30T09:38:24;19.45;;;13.07;;
59338;SDS011;45117;50.960;5.500;2022-09-30T09:41:12;15.48;;;10.70;;
59338;SDS011;45117;50.960;5.500;2022-09-30T09:43:50;19.17;;;11.18;;
59338;SDS011;45117;50.960;5.500;2022-09-30T09:46:25;18.92;;;12.38;;
59338;SDS011;45117;50.960;5.500;2022-09-30T09:54:55;14.98;;;10.30;;
59338;SDS011;45117;50.960;5.500;2022-09-30T09:57:23;20.55;;;11.55;;
59338;SDS011;45117;50.960;5.500;2022-09-30T09:59:58;15.25;;;9.00;;
59338;SDS011;45117;50.960;5.500;2022-09-30T10:02:52;17.77;;;9.70;;
59338;SDS011;45117;50.960;5.500;2022-09-30T10:05:24;14.65;;;9.10;;
59338;SDS011;45117;50.960;5.500;2022-09-30T10:10:37;12.80;;;7.55;;
59338;SDS011;45117;50.960;5.500;2022-09-30T10:13:13;10.48;;;7.10;;
59338;SDS011;45117;50.960;5.500;2022-09-30T10:15:43;10.40;;;6.72;;
59338;SDS011;45117;50.960;5.500;2022-09-30T10:18:15;12.02;;;6.22;;
59338;SDS011;45117;50.960;5.500;2022-09-30T10:20:49;9.38;;;5.13;;
59338;SDS011;45117;50.960;5.500;2022-09-30T10:23:18;10.20;;;6.25;;
59338;SDS011;45117;50.960;5.500;2022-09-30T10:25:57;8.10;;;4.90;;
59338;SDS011;45117;50.960;5.500;2022-09-30T10:28:28;6.50;;;3.85;;
59338;SDS011;45117;50.960;5.500;2022-09-30T10:33:50;8.80;;;4.00;;
59338;SDS011;45117;50.960;5.500;2022-09-30T10:36:20;8.40;;;3.83;;
59338;SDS011;45117;50.960;5.500;2022-09-30T10:38:52;7.85;;;4.40;;
59338;SDS011;45117;50.960;5.500;2022-09-30T10:41:24;7.00;;;3.85;;
59338;SDS011;45117;50.960;5.500;2022-09-30T10:43:53;7.85;;;4.32;;
59338;SDS011;45117;50.960;5.500;2022-09-30T10:46:23;5.45;;;3.67;;
59338;SDS011;45117;50.960;5.500;2022-09-30T10:48:53;5.75;;;2.92;;
59338;SDS011;45117;50.960;5.500;2022-09-30T10:51:23;4.45;;;2.10;;
59338;SDS011;45117;50.960;5.500;2022-09-30T10:53:51;4.03;;;1.90;;
59338;SDS011;45117;50.960;5.500;2022-09-30T10:59:13;6.25;;;2.70;;
59338;SDS011;45117;50.960;5.500;2022-09-30T11:01:51;4.30;;;2.50;;
59338;SDS011;45117;50.960;5.500;2022-09-30T11:04:24;6.60;;;2.58;;
59338;SDS011;45117;50.960;5.500;2022-09-30T11:06:56;4.97;;;2.58;;
59338;SDS011;45117;50.960;5.500;2022-09-30T11:09:28;4.68;;;2.75;;
59338;SDS011;45117;50.960;5.500;2022-09-30T11:12:01;8.02;;;3.70;;
59338;SDS011;45117;50.960;5.500;2022-09-30T11:14:34;6.20;;;3.25;;
59338;SDS011;45117;50.960;5.500;2022-09-30T11:17:09;6.15;;;3.88;;
59338;SDS011;45117;50.960;5.500;2022-09-30T11:19:43;8.68;;;3.50;;
59338;SDS011;45117;50.960;5.500;2022-09-30T11:22:30;7.03;;;3.50;;
59338;SDS011;45117;50.960;5.500;2022-09-30T11:25:02;5.25;;;2.92;;
59338;SDS011;45117;50.960;5.500;2022-09-30T11:27:32;6.30;;;3.50;;
59338;SDS011;45117;50.960;5.500;2022-09-30T11:30:08;5.65;;;3.10;;
59338;SDS011;45117;50.960;5.500;2022-09-30T11:32:46;3.92;;;2.17;;
59338;SDS011;45117;50.960;5.500;2022-09-30T11:38:19;2.33;;;1.30;;
59338;SDS011;45117;50.960;5.500;2022-09-30T11:41:00;3.90;;;1.52;;
59338;SDS011;45117;50.960;5.500;2022-09-30T11:43:31;2.90;;;1.30;;
59338;SDS011;45117;50.960;5.500;2022-09-30T11:49:08;3.83;;;1.48;;
59338;SDS011;45117;50.960;5.500;2022-09-30T11:51:50;3.97;;;1.38;;
59338;SDS011;45117;50.960;5.500;2022-09-30T11:54:28;1.38;;;0.98;;
59338;SDS011;45117;50.960;5.500;2022-09-30T11:57:02;2.55;;;0.90;;
59338;SDS011;45117;50.960;5.500;2022-09-30T11:59:33;2.85;;;1.95;;
59338;SDS011;45117;50.960;5.500;2022-09-30T12:02:08;2.55;;;1.10;;
59338;SDS011;45117;50.960;5.500;2022-09-30T12:04:46;1.65;;;0.80;;
59338;SDS011;45117;50.960;5.500;2022-09-30T12:07:16;3.47;;;0.88;;
59338;SDS011;45117;50.960;5.500;2022-09-30T12:09:47;2.25;;;0.90;;
59338;SDS011;45117;50.960;5.500;2022-09-30T12:12:17;2.22;;;0.90;;
59338;SDS011;45117;50.960;5.500;2022-09-30T12:14:46;1.13;;;0.70;;
59338;SDS011;45117;50.960;5.500;2022-09-30T12:17:18;2.03;;;0.70;;
59338;SDS011;45117;50.960;5.500;2022-09-30T12:19:52;2.58;;;0.90;;
59338;SDS011;45117;50.960;5.500;2022-09-30T12:22:21;2.10;;;0.65;;
59338;SDS011;45117;50.960;5.500;2022-09-30T12:24:52;1.65;;;0.70;;
59338;SDS011;45117;50.960;5.500;2022-09-30T12:27:20;2.38;;;0.60;;
59338;SDS011;45117;50.960;5.500;2022-09-30T12:29:53;1.00;;;0.80;;
59338;SDS011;45117;50.960;5.500;2022-09-30T12:33:02;1.98;;;0.70;;
59338;SDS011;45117;50.960;5.500;2022-09-30T12:38:50;1.25;;;0.90;;
59338;SDS011;45117;50.960;5.500;2022-09-30T12:41:34;1.30;;;0.73;;
59338;SDS011;45117;50.960;5.500;2022-09-30T12:44:29;0.85;;;0.45;;
59338;SDS011;45117;50.960;5.500;2022-09-30T12:49:59;2.03;;;0.90;;
59338;SDS011;45117;50.960;5.500;2022-09-30T12:52:32;1.08;;;0.70;;
59338;SDS011;45117;50.960;5.500;2022-09-30T12:55:04;1.65;;;0.80;;
59338;SDS011;45117;50.960;5.500;2022-09-30T12:57:35;1.63;;;0.90;;
59338;SDS011;45117;50.960;5.500;2022-09-30T13:00:12;0.82;;;0.70;;
59338;SDS011;45117;50.960;5.500;2022-09-30T13:02:41;1.73;;;0.90;;
59338;SDS011;45117;50.960;5.500;2022-09-30T13:08:40;0.80;;;0.63;;
59338;SDS011;45117;50.960;5.500;2022-09-30T13:16:59;2.00;;;0.80;;
59338;SDS011;45117;50.960;5.500;2022-09-30T13:19:51;1.80;;;0.75;;
59338;SDS011;45117;50.960;5.500;2022-09-30T13:25:25;1.35;;;0.70;;
59338;SDS011;45117;50.960;5.500;2022-09-30T13:27:52;1.90;;;1.10;;
59338;SDS011;45117;50.960;5.500;2022-09-30T13:33:41;1.48;;;0.80;;
59338;SDS011;45117;50.960;5.500;2022-09-30T13:36:26;2.00;;;0.90;;
59338;SDS011;45117;50.960;5.500;2022-09-30T13:41:47;1.35;;;0.93;;
59338;SDS011;45117;50.960;5.500;2022-09-30T13:44:23;1.90;;;1.02;;
59338;SDS011;45117;50.960;5.500;2022-09-30T13:46:58;1.58;;;0.90;;
59338;SDS011;45117;50.960;5.500;2022-09-30T13:49:32;2.88;;;0.95;;
59338;SDS011;45117;50.960;5.500;2022-09-30T13:52:05;4.57;;;1.60;;
59338;SDS011;45117;50.960;5.500;2022-09-30T13:54:34;2.38;;;1.35;;
59338;SDS011;45117;50.960;5.500;2022-09-30T13:57:05;2.10;;;1.40;;
59338;SDS011;45117;50.960;5.500;2022-09-30T13:59:43;2.75;;;1.10;;
59338;SDS011;45117;50.960;5.500;2022-09-30T14:02:28;5.43;;;1.10;;
59338;SDS011;45117;50.960;5.500;2022-09-30T14:05:20;1.60;;;1.25;;
59338;SDS011;45117;50.960;5.500;2022-09-30T14:08:11;1.83;;;1.20;;
59338;SDS011;45117;50.960;5.500;2022-09-30T14:11:08;3.72;;;1.60;;
59338;SDS011;45117;50.960;5.500;2022-09-30T14:13:45;2.35;;;1.42;;
59338;SDS011;45117;50.960;5.500;2022-09-30T14:16:28;1.92;;;1.42;;
59338;SDS011;45117;50.960;5.500;2022-09-30T14:19:14;2.40;;;1.30;;
59338;SDS011;45117;50.960;5.500;2022-09-30T14:21:57;4.57;;;1.65;;
59338;SDS011;45117;50.960;5.500;2022-09-30T14:24:28;2.20;;;1.42;;
59338;SDS011;45117;50.960;5.500;2022-09-30T14:27:01;2.17;;;1.23;;
59338;SDS011;45117;50.960;5.500;2022-09-30T14:29:42;4.85;;;1.42;;
59338;SDS011;45117;50.960;5.500;2022-09-30T14:32:19;3.08;;;1.35;;
59338;SDS011;45117;50.960;5.500;2022-09-30T14:34:46;3.15;;;1.38;;
59338;SDS011;45117;50.960;5.500;2022-09-30T14:37:15;1.55;;;1.27;;
59338;SDS011;45117;50.960;5.500;2022-09-30T14:39:45;2.15;;;1.10;;
59338;SDS011;45117;50.960;5.500;2022-09-30T14:42:13;1.45;;;1.10;;
59338;SDS011;45117;50.960;5.500;2022-09-30T14:44:50;5.95;;;1.10;;
59338;SDS011;45117;50.960;5.500;2022-09-30T14:47:19;1.52;;;1.20;;
59338;SDS011;45117;50.960;5.500;2022-09-30T14:49:47;3.22;;;1.33;;
59338;SDS011;45117;50.960;5.500;2022-09-30T14:52:33;1.88;;;1.17;;
59338;SDS011;45117;50.960;5.500;2022-09-30T14:55:02;3.72;;;1.20;;
59338;SDS011;45117;50.960;5.500;2022-09-30T14:57:29;2.20;;;1.50;;
59338;SDS011;45117;50.960;5.500;2022-09-30T15:02:55;2.38;;;1.40;;
59338;SDS011;45117;50.960;5.500;2022-09-30T15:05:22;2.95;;;1.27;;
59338;SDS011;45117;50.960;5.500;2022-09-30T15:07:49;2.17;;;1.30;;
59338;SDS011;45117;50.960;5.500;2022-09-30T15:10:16;1.77;;;1.35;;
59338;SDS011;45117;50.960;5.500;2022-09-30T15:12:45;3.40;;;1.40;;
59338;SDS011;45117;50.960;5.500;2022-09-30T15:15:32;1.65;;;1.00;;
59338;SDS011;45117;50.960;5.500;2022-09-30T15:20:51;2.85;;;1.35;;
59338;SDS011;45117;50.960;5.500;2022-09-30T15:23:21;3.35;;;1.05;;
59338;SDS011;45117;50.960;5.500;2022-09-30T15:25:51;1.40;;;1.00;;
59338;SDS011;45117;50.960;5.500;2022-09-30T15:28:18;4.38;;;1.00;;
59338;SDS011;45117;50.960;5.500;2022-09-30T15:30:46;1.30;;;0.90;;
59338;SDS011;45117;50.960;5.500;2022-09-30T15:33:16;2.65;;;0.95;;
59338;SDS011;45117;50.960;5.500;2022-09-30T15:35:46;2.10;;;1.20;;
59338;SDS011;45117;50.960;5.500;2022-09-30T15:38:15;3.95;;;1.20;;
59338;SDS011;45117;50.960;5.500;2022-09-30T15:40:45;2.38;;;1.20;;
59338;SDS011;45117;50.960;5.500;2022-09-30T15:43:15;2.28;;;1.00;;
59338;SDS011;45117;50.960;5.500;2022-09-30T15:45:52;1.50;;;1.10;;
59338;SDS011;45117;50.960;5.500;2022-09-30T15:48:31;2.72;;;1.10;;
59338;SDS011;45117;50.960;5.500;2022-09-30T15:51:00;2.35;;;0.70;;
59338;SDS011;45117;50.960;5.500;2022-09-30T15:53:47;3.17;;;1.05;;
59338;SDS011;45117;50.960;5.500;2022-09-30T15:56:14;2.17;;;0.90;;
59338;SDS011;45117;50.960;5.500;2022-09-30T15:58:52;1.05;;;0.60;;
59338;SDS011;45117;50.960;5.500;2022-09-30T16:01:22;2.05;;;0.70;;
59338;SDS011;45117;50.960;5.500;2022-09-30T16:03:51;1.30;;;0.70;;